sensor_id;sensor_type;location;lat;lon;timestamp;temperature;humidity
19348;DHT22;9810;52.480;9.806;2023-03-14T00:00:07;11.10;99.90
19348;DHT22;9810;52.480;9.806;2023-03-14T00:02:37;10.80;99.90
19348;DHT22;9810;52.480;9.806;2023-03-14T00:05:05;11.10;99.90
19348;DHT22;9810;52.480;9.806;2023-03-14T00:07:34;10.80;99.90
19348;DHT22;9810;52.480;9.806;2023-03-14T00:10:03;10.80;99.90
19348;DHT22;9810;52.480;9.806;2023-03-14T00:12:31;11.10;99.90
19348;DHT22;9810;52.480;9.806;2023-03-14T00:14:59;11.20;99.90
19348;DHT22;9810;52.480;9.806;2023-03-14T00:17:29;11.30;99.90
19348;DHT22;9810;52.480;9.806;2023-03-14T00:19:58;11.20;99.90
19348;DHT22;9810;52.480;9.806;2023-03-14T00:22:33;11.20;99.90
19348;DHT22;9810;52.480;9.806;2023-03-14T00:25:01;11.10;99.90
19348;DHT22;9810;52.480;9.806;2023-03-14T00:27:29;11.00;99.90
19348;DHT22;9810;52.480;9.806;2023-03-14T00:29:56;11.10;99.90
19348;DHT22;9810;52.480;9.806;2023-03-14T00:32:23;11.10;99.90
19348;DHT22;9810;52.480;9.806;2023-03-14T00:34:51;11.40;99.90
19348;DHT22;9810;52.480;9.806;2023-03-14T00:37:20;11.50;99.90
19348;DHT22;9810;52.480;9.806;2023-03-14T00:39:47;11.60;99.90
19348;DHT22;9810;52.480;9.806;2023-03-14T00:42:15;11.40;99.90
19348;DHT22;9810;52.480;9.806;2023-03-14T00:44:42;11.60;99.90
19348;DHT22;9810;52.480;9.806;2023-03-14T00:47:09;11.50;99.90
19348;DHT22;9810;52.480;9.806;2023-03-14T00:49:37;11.40;99.90
19348;DHT22;9810;52.480;9.806;2023-03-14T00:52:04;11.40;99.90
19348;DHT22;9810;52.480;9.806;2023-03-14T00:54:33;11.40;99.90
19348;DHT22;9810;52.480;9.806;2023-03-14T00:57:01;11.50;99.90
19348;DHT22;9810;52.480;9.806;2023-03-14T00:59:28;11.40;99.90
19348;DHT22;9810;52.480;9.806;2023-03-14T01:01:55;11.60;99.90
19348;DHT22;9810;52.480;9.806;2023-03-14T01:04:23;11.60;99.90
19348;DHT22;9810;52.480;9.806;2023-03-14T01:06:50;11.50;99.90
19348;DHT22;9810;52.480;9.806;2023-03-14T01:09:17;11.50;99.90
19348;DHT22;9810;52.480;9.806;2023-03-14T01:11:46;11.50;99.90
19348;DHT22;9810;52.480;9.806;2023-03-14T01:14:14;11.40;99.90
19348;DHT22;9810;52.480;9.806;2023-03-14T01:16:41;11.20;99.90
19348;DHT22;9810;52.480;9.806;2023-03-14T01:19:09;11.40;99.90
19348;DHT22;9810;52.480;9.806;2023-03-14T01:21:37;11.30;99.90
19348;DHT22;9810;52.480;9.806;2023-03-14T01:24:05;11.30;99.90
19348;DHT22;9810;52.480;9.806;2023-03-14T01:26:34;11.10;99.90
19348;DHT22;9810;52.480;9.806;2023-03-14T01:29:04;11.20;99.90
19348;DHT22;9810;52.480;9.806;2023-03-14T01:31:31;11.30;99.90
19348;DHT22;9810;52.480;9.806;2023-03-14T01:33:59;11.50;99.90
19348;DHT22;9810;52.480;9.806;2023-03-14T01:36:26;11.20;99.90
19348;DHT22;9810;52.480;9.806;2023-03-14T01:38:53;11.40;99.90
19348;DHT22;9810;52.480;9.806;2023-03-14T01:41:24;11.20;99.90
19348;DHT22;9810;52.480;9.806;2023-03-14T01:43:52;11.30;99.90
19348;DHT22;9810;52.480;9.806;2023-03-14T01:46:25;11.30;99.90
19348;DHT22;9810;52.480;9.806;2023-03-14T01:49:00;11.40;99.90
19348;DHT22;9810;52.480;9.806;2023-03-14T01:51:32;11.30;99.90
19348;DHT22;9810;52.480;9.806;2023-03-14T01:54:09;11.40;99.90
19348;DHT22;9810;52.480;9.806;2023-03-14T01:56:39;11.20;99.90
19348;DHT22;9810;52.480;9.806;2023-03-14T01:59:08;11.10;99.90
19348;DHT22;9810;52.480;9.806;2023-03-14T02:01:42;11.00;99.90
19348;DHT22;9810;52.480;9.806;2023-03-14T02:04:11;11.10;99.90
19348;DHT22;9810;52.480;9.806;2023-03-14T02:06:46;11.30;99.90
19348;DHT22;9810;52.480;9.806;2023-03-14T02:09:14;11.30;99.90
19348;DHT22;9810;52.480;9.806;2023-03-14T02:11:43;11.50;99.90
19348;DHT22;9810;52.480;9.806;2023-03-14T02:14:22;11.50;99.90
19348;DHT22;9810;52.480;9.806;2023-03-14T02:16:53;11.30;99.90
19348;DHT22;9810;52.480;9.806;2023-03-14T02:19:29;11.50;99.90
19348;DHT22;9810;52.480;9.806;2023-03-14T02:22:06;11.40;99.90
19348;DHT22;9810;52.480;9.806;2023-03-14T02:24:40;11.80;99.90
19348;DHT22;9810;52.480;9.806;2023-03-14T02:27:13;11.50;99.90
19348;DHT22;9810;52.480;9.806;2023-03-14T02:29:48;11.50;99.90
19348;DHT22;9810;52.480;9.806;2023-03-14T02:32:17;11.40;99.90
19348;DHT22;9810;52.480;9.806;2023-03-14T02:34:48;11.50;99.90
19348;DHT22;9810;52.480;9.806;2023-03-14T02:37:21;11.40;99.90
19348;DHT22;9810;52.480;9.806;2023-03-14T02:39:50;11.60;99.90
19348;DHT22;9810;52.480;9.806;2023-03-14T02:42:19;11.40;99.90
19348;DHT22;9810;52.480;9.806;2023-03-14T02:44:51;11.60;99.90
19348;DHT22;9810;52.480;9.806;2023-03-14T02:47:28;11.60;99.90
19348;DHT22;9810;52.480;9.806;2023-03-14T02:50:02;11.60;99.90
19348;DHT22;9810;52.480;9.806;2023-03-14T02:52:30;11.70;99.90
19348;DHT22;9810;52.480;9.806;2023-03-14T02:54:58;11.70;99.90
19348;DHT22;9810;52.480;9.806;2023-03-14T02:57:27;11.50;99.90
19348;DHT22;9810;52.480;9.806;2023-03-14T02:59:56;11.50;99.90
19348;DHT22;9810;52.480;9.806;2023-03-14T03:02:32;11.60;99.90
19348;DHT22;9810;52.480;9.806;2023-03-14T03:05:02;11.60;99.90
19348;DHT22;9810;52.480;9.806;2023-03-14T03:07:30;11.40;99.90
19348;DHT22;9810;52.480;9.806;2023-03-14T03:09:57;11.30;99.90
19348;DHT22;9810;52.480;9.806;2023-03-14T03:12:26;11.30;99.90
19348;DHT22;9810;52.480;9.806;2023-03-14T03:14:54;11.50;99.90
19348;DHT22;9810;52.480;9.806;2023-03-14T03:17:21;11.30;99.90
19348;DHT22;9810;52.480;9.806;2023-03-14T03:19:48;11.30;99.90
19348;DHT22;9810;52.480;9.806;2023-03-14T03:22:16;11.30;99.90
19348;DHT22;9810;52.480;9.806;2023-03-14T03:24:43;11.30;99.90
19348;DHT22;9810;52.480;9.806;2023-03-14T03:27:11;11.30;99.90
19348;DHT22;9810;52.480;9.806;2023-03-14T03:29:40;11.20;99.90
19348;DHT22;9810;52.480;9.806;2023-03-14T03:32:07;11.00;99.90
19348;DHT22;9810;52.480;9.806;2023-03-14T03:34:35;11.30;99.90
19348;DHT22;9810;52.480;9.806;2023-03-14T03:37:02;11.30;99.90
19348;DHT22;9810;52.480;9.806;2023-03-14T03:39:29;11.20;99.90
19348;DHT22;9810;52.480;9.806;2023-03-14T03:41:57;11.30;99.90
19348;DHT22;9810;52.480;9.806;2023-03-14T03:44:27;11.40;99.90
19348;DHT22;9810;52.480;9.806;2023-03-14T03:46:56;11.40;99.90
19348;DHT22;9810;52.480;9.806;2023-03-14T03:49:23;11.30;99.90
19348;DHT22;9810;52.480;9.806;2023-03-14T03:51:52;11.30;99.90
19348;DHT22;9810;52.480;9.806;2023-03-14T03:54:23;11.40;99.90
19348;DHT22;9810;52.480;9.806;2023-03-14T03:56:54;10.90;99.90
19348;DHT22;9810;52.480;9.806;2023-03-14T03:59:21;10.20;99.90
19348;DHT22;9810;52.480;9.806;2023-03-14T04:02:01;10.30;99.90
19348;DHT22;9810;52.480;9.806;2023-03-14T04:04:30;10.10;99.90
19348;DHT22;9810;52.480;9.806;2023-03-14T04:06:59;10.10;99.90
19348;DHT22;9810;52.480;9.806;2023-03-14T04:09:29;10.00;99.90
19348;DHT22;9810;52.480;9.806;2023-03-14T04:11:57;9.90;99.90
19348;DHT22;9810;52.480;9.806;2023-03-14T04:14:24;9.70;99.90
19348;DHT22;9810;52.480;9.806;2023-03-14T04:16:51;9.90;99.90
19348;DHT22;9810;52.480;9.806;2023-03-14T04:19:20;9.80;99.90
19348;DHT22;9810;52.480;9.806;2023-03-14T04:21:48;9.70;99.90
19348;DHT22;9810;52.480;9.806;2023-03-14T04:24:15;9.80;99.90
19348;DHT22;9810;52.480;9.806;2023-03-14T04:26:45;9.70;99.90
19348;DHT22;9810;52.480;9.806;2023-03-14T04:29:12;9.70;99.90
19348;DHT22;9810;52.480;9.806;2023-03-14T04:31:40;9.60;99.90
19348;DHT22;9810;52.480;9.806;2023-03-14T04:34:08;9.50;99.90
19348;DHT22;9810;52.480;9.806;2023-03-14T04:36:38;9.50;99.90
19348;DHT22;9810;52.480;9.806;2023-03-14T04:39:05;9.40;99.90
19348;DHT22;9810;52.480;9.806;2023-03-14T04:41:32;9.50;99.90
19348;DHT22;9810;52.480;9.806;2023-03-14T04:44:00;9.40;99.90
19348;DHT22;9810;52.480;9.806;2023-03-14T04:46:28;9.20;99.90
19348;DHT22;9810;52.480;9.806;2023-03-14T04:48:56;9.20;99.90
19348;DHT22;9810;52.480;9.806;2023-03-14T04:51:23;9.20;99.90
19348;DHT22;9810;52.480;9.806;2023-03-14T04:53:54;9.10;99.90
19348;DHT22;9810;52.480;9.806;2023-03-14T04:56:22;9.10;99.90
19348;DHT22;9810;52.480;9.806;2023-03-14T04:58:49;9.00;99.90
19348;DHT22;9810;52.480;9.806;2023-03-14T05:01:17;9.10;99.90
19348;DHT22;9810;52.480;9.806;2023-03-14T05:03:44;9.20;99.90
19348;DHT22;9810;52.480;9.806;2023-03-14T05:06:12;9.10;99.90
19348;DHT22;9810;52.480;9.806;2023-03-14T05:08:39;9.00;99.90
19348;DHT22;9810;52.480;9.806;2023-03-14T05:11:10;9.00;99.90
19348;DHT22;9810;52.480;9.806;2023-03-14T05:13:38;9.10;99.90
19348;DHT22;9810;52.480;9.806;2023-03-14T05:16:06;8.90;99.90
19348;DHT22;9810;52.480;9.806;2023-03-14T05:18:34;8.80;99.90
19348;DHT22;9810;52.480;9.806;2023-03-14T05:21:02;8.80;99.90
19348;DHT22;9810;52.480;9.806;2023-03-14T05:23:33;8.80;99.90
19348;DHT22;9810;52.480;9.806;2023-03-14T05:26:02;9.00;99.90
19348;DHT22;9810;52.480;9.806;2023-03-14T05:28:31;9.00;99.90
19348;DHT22;9810;52.480;9.806;2023-03-14T05:30:59;8.80;99.90
19348;DHT22;9810;52.480;9.806;2023-03-14T05:33:26;8.90;99.90
19348;DHT22;9810;52.480;9.806;2023-03-14T05:35:53;8.80;99.90
19348;DHT22;9810;52.480;9.806;2023-03-14T05:38:20;8.90;99.90
19348;DHT22;9810;52.480;9.806;2023-03-14T05:40:48;8.60;99.90
19348;DHT22;9810;52.480;9.806;2023-03-14T05:43:16;8.70;99.90
19348;DHT22;9810;52.480;9.806;2023-03-14T05:45:51;9.00;99.90
19348;DHT22;9810;52.480;9.806;2023-03-14T05:48:19;9.00;99.90
19348;DHT22;9810;52.480;9.806;2023-03-14T05:50:53;8.80;99.90
19348;DHT22;9810;52.480;9.806;2023-03-14T05:53:23;9.00;99.90
19348;DHT22;9810;52.480;9.806;2023-03-14T05:55:52;8.80;99.90
19348;DHT22;9810;52.480;9.806;2023-03-14T05:58:19;8.80;99.90
19348;DHT22;9810;52.480;9.806;2023-03-14T06:00:47;8.80;99.90
19348;DHT22;9810;52.480;9.806;2023-03-14T06:03:16;8.70;99.90
19348;DHT22;9810;52.480;9.806;2023-03-14T06:05:49;8.90;99.90
19348;DHT22;9810;52.480;9.806;2023-03-14T06:08:19;9.00;99.90
19348;DHT22;9810;52.480;9.806;2023-03-14T06:10:47;9.00;99.90
19348;DHT22;9810;52.480;9.806;2023-03-14T06:13:14;8.90;99.90
19348;DHT22;9810;52.480;9.806;2023-03-14T06:15:44;8.90;99.90
19348;DHT22;9810;52.480;9.806;2023-03-14T06:18:12;8.80;99.90
19348;DHT22;9810;52.480;9.806;2023-03-14T06:20:41;8.80;99.90
19348;DHT22;9810;52.480;9.806;2023-03-14T06:23:09;9.10;99.90
19348;DHT22;9810;52.480;9.806;2023-03-14T06:25:37;9.00;99.90
19348;DHT22;9810;52.480;9.806;2023-03-14T06:28:04;9.00;99.90
19348;DHT22;9810;52.480;9.806;2023-03-14T06:30:32;9.20;99.90
19348;DHT22;9810;52.480;9.806;2023-03-14T06:33:00;9.20;99.90
19348;DHT22;9810;52.480;9.806;2023-03-14T06:35:28;9.20;99.90
19348;DHT22;9810;52.480;9.806;2023-03-14T06:37:57;9.20;99.90
19348;DHT22;9810;52.480;9.806;2023-03-14T06:40:24;9.30;99.90
19348;DHT22;9810;52.480;9.806;2023-03-14T06:42:51;9.30;99.90
19348;DHT22;9810;52.480;9.806;2023-03-14T06:45:19;9.40;99.90
19348;DHT22;9810;52.480;9.806;2023-03-14T06:47:47;9.60;99.90
19348;DHT22;9810;52.480;9.806;2023-03-14T06:50:18;9.70;99.90
19348;DHT22;9810;52.480;9.806;2023-03-14T06:52:47;9.70;99.90
19348;DHT22;9810;52.480;9.806;2023-03-14T06:55:17;9.80;99.90
19348;DHT22;9810;52.480;9.806;2023-03-14T06:57:44;9.90;99.90
19348;DHT22;9810;52.480;9.806;2023-03-14T07:00:13;9.80;99.90
19348;DHT22;9810;52.480;9.806;2023-03-14T07:02:40;9.80;99.90
19348;DHT22;9810;52.480;9.806;2023-03-14T07:05:08;10.00;99.90
19348;DHT22;9810;52.480;9.806;2023-03-14T07:07:37;10.00;99.90
19348;DHT22;9810;52.480;9.806;2023-03-14T07:10:12;10.10;99.90
19348;DHT22;9810;52.480;9.806;2023-03-14T07:12:41;10.20;99.90
19348;DHT22;9810;52.480;9.806;2023-03-14T07:15:09;10.40;99.90
19348;DHT22;9810;52.480;9.806;2023-03-14T07:17:38;10.50;99.90
19348;DHT22;9810;52.480;9.806;2023-03-14T07:20:07;10.30;99.90
19348;DHT22;9810;52.480;9.806;2023-03-14T07:22:37;10.20;99.90
19348;DHT22;9810;52.480;9.806;2023-03-14T07:25:06;10.20;99.90
19348;DHT22;9810;52.480;9.806;2023-03-14T07:27:37;10.20;99.90
19348;DHT22;9810;52.480;9.806;2023-03-14T07:30:08;10.20;99.90
19348;DHT22;9810;52.480;9.806;2023-03-14T07:32:35;10.30;99.90
19348;DHT22;9810;52.480;9.806;2023-03-14T07:35:03;10.30;99.90
19348;DHT22;9810;52.480;9.806;2023-03-14T07:37:31;10.40;99.90
19348;DHT22;9810;52.480;9.806;2023-03-14T07:40:01;10.30;99.90
19348;DHT22;9810;52.480;9.806;2023-03-14T07:42:31;10.30;99.90
19348;DHT22;9810;52.480;9.806;2023-03-14T07:44:58;10.20;99.90
19348;DHT22;9810;52.480;9.806;2023-03-14T07:47:28;10.20;99.90
19348;DHT22;9810;52.480;9.806;2023-03-14T07:49:55;10.20;99.90
19348;DHT22;9810;52.480;9.806;2023-03-14T07:52:22;10.20;99.90
19348;DHT22;9810;52.480;9.806;2023-03-14T07:54:50;10.30;99.90
19348;DHT22;9810;52.480;9.806;2023-03-14T07:57:18;10.30;99.90
19348;DHT22;9810;52.480;9.806;2023-03-14T07:59:48;10.30;99.90
19348;DHT22;9810;52.480;9.806;2023-03-14T08:02:15;10.00;99.90
19348;DHT22;9810;52.480;9.806;2023-03-14T08:04:47;10.00;99.90
19348;DHT22;9810;52.480;9.806;2023-03-14T08:07:15;10.20;99.90
19348;DHT22;9810;52.480;9.806;2023-03-14T08:09:42;10.30;99.90
19348;DHT22;9810;52.480;9.806;2023-03-14T08:12:10;10.50;99.90
19348;DHT22;9810;52.480;9.806;2023-03-14T08:14:37;10.60;99.90
19348;DHT22;9810;52.480;9.806;2023-03-14T08:17:04;10.50;99.90
19348;DHT22;9810;52.480;9.806;2023-03-14T08:19:33;10.50;99.90
19348;DHT22;9810;52.480;9.806;2023-03-14T08:22:03;10.60;99.90
19348;DHT22;9810;52.480;9.806;2023-03-14T08:24:31;10.70;99.90
19348;DHT22;9810;52.480;9.806;2023-03-14T08:26:58;10.60;99.90
19348;DHT22;9810;52.480;9.806;2023-03-14T08:29:25;10.30;99.90
19348;DHT22;9810;52.480;9.806;2023-03-14T08:31:53;10.20;99.90
19348;DHT22;9810;52.480;9.806;2023-03-14T08:34:21;10.10;99.90
19348;DHT22;9810;52.480;9.806;2023-03-14T08:36:48;10.10;99.90
19348;DHT22;9810;52.480;9.806;2023-03-14T08:39:20;10.00;99.90
19348;DHT22;9810;52.480;9.806;2023-03-14T08:41:49;10.10;99.90
19348;DHT22;9810;52.480;9.806;2023-03-14T08:44:25;10.00;99.90
19348;DHT22;9810;52.480;9.806;2023-03-14T08:46:52;10.30;99.90
19348;DHT22;9810;52.480;9.806;2023-03-14T08:49:19;10.10;99.90
19348;DHT22;9810;52.480;9.806;2023-03-14T08:51:47;10.00;99.90
19348;DHT22;9810;52.480;9.806;2023-03-14T08:54:15;10.50;99.90
19348;DHT22;9810;52.480;9.806;2023-03-14T08:56:44;10.40;99.90
19348;DHT22;9810;52.480;9.806;2023-03-14T08:59:11;10.40;99.90
19348;DHT22;9810;52.480;9.806;2023-03-14T09:01:39;10.50;99.90
19348;DHT22;9810;52.480;9.806;2023-03-14T09:04:06;10.80;99.90
19348;DHT22;9810;52.480;9.806;2023-03-14T09:06:35;10.90;99.90
19348;DHT22;9810;52.480;9.806;2023-03-14T09:09:02;10.80;99.90
19348;DHT22;9810;52.480;9.806;2023-03-14T09:11:33;10.90;99.90
19348;DHT22;9810;52.480;9.806;2023-03-14T09:14:04;10.70;99.90
19348;DHT22;9810;52.480;9.806;2023-03-14T09:16:33;10.70;99.90
19348;DHT22;9810;52.480;9.806;2023-03-14T09:19:00;10.50;99.90
19348;DHT22;9810;52.480;9.806;2023-03-14T09:21:28;10.40;99.90
19348;DHT22;9810;52.480;9.806;2023-03-14T09:23:55;11.00;99.90
19348;DHT22;9810;52.480;9.806;2023-03-14T09:26:23;10.50;99.90
19348;DHT22;9810;52.480;9.806;2023-03-14T09:28:50;10.50;99.90
19348;DHT22;9810;52.480;9.806;2023-03-14T09:31:19;10.30;99.90
19348;DHT22;9810;52.480;9.806;2023-03-14T09:33:47;10.10;99.90
19348;DHT22;9810;52.480;9.806;2023-03-14T09:36:16;10.20;99.90
19348;DHT22;9810;52.480;9.806;2023-03-14T09:38:43;10.40;99.90
19348;DHT22;9810;52.480;9.806;2023-03-14T09:41:15;10.90;99.90
19348;DHT22;9810;52.480;9.806;2023-03-14T09:43:44;10.80;99.90
19348;DHT22;9810;52.480;9.806;2023-03-14T09:46:14;11.60;99.90
19348;DHT22;9810;52.480;9.806;2023-03-14T09:48:45;13.70;99.90
19348;DHT22;9810;52.480;9.806;2023-03-14T09:51:17;15.60;99.90
19348;DHT22;9810;52.480;9.806;2023-03-14T09:53:52;13.00;99.90
19348;DHT22;9810;52.480;9.806;2023-03-14T09:56:21;12.50;99.90
19348;DHT22;9810;52.480;9.806;2023-03-14T09:58:52;14.70;99.90
19348;DHT22;9810;52.480;9.806;2023-03-14T10:01:24;13.90;99.90
19348;DHT22;9810;52.480;9.806;2023-03-14T10:03:56;13.40;99.90
19348;DHT22;9810;52.480;9.806;2023-03-14T10:06:26;13.30;99.90
19348;DHT22;9810;52.480;9.806;2023-03-14T10:08:57;12.90;99.90
19348;DHT22;9810;52.480;9.806;2023-03-14T10:11:25;13.30;99.90
19348;DHT22;9810;52.480;9.806;2023-03-14T10:14:05;12.70;99.90
19348;DHT22;9810;52.480;9.806;2023-03-14T10:16:33;12.40;99.90
19348;DHT22;9810;52.480;9.806;2023-03-14T10:19:05;12.30;99.90
19348;DHT22;9810;52.480;9.806;2023-03-14T10:21:37;12.50;99.90
19348;DHT22;9810;52.480;9.806;2023-03-14T10:24:15;12.50;99.90
19348;DHT22;9810;52.480;9.806;2023-03-14T10:26:48;12.20;99.90
19348;DHT22;9810;52.480;9.806;2023-03-14T10:29:16;13.10;99.90
19348;DHT22;9810;52.480;9.806;2023-03-14T10:31:50;12.70;99.90
19348;DHT22;9810;52.480;9.806;2023-03-14T10:34:23;12.20;99.90
19348;DHT22;9810;52.480;9.806;2023-03-14T10:36:56;12.10;99.90
19348;DHT22;9810;52.480;9.806;2023-03-14T10:39:41;11.80;99.90
19348;DHT22;9810;52.480;9.806;2023-03-14T10:42:16;11.70;99.90
19348;DHT22;9810;52.480;9.806;2023-03-14T10:44:47;11.20;99.90
19348;DHT22;9810;52.480;9.806;2023-03-14T10:47:17;11.10;99.90
19348;DHT22;9810;52.480;9.806;2023-03-14T10:49:47;11.10;99.90
19348;DHT22;9810;52.480;9.806;2023-03-14T10:52:19;11.30;99.90
19348;DHT22;9810;52.480;9.806;2023-03-14T10:54:49;11.30;99.90
19348;DHT22;9810;52.480;9.806;2023-03-14T10:57:20;11.30;99.90
19348;DHT22;9810;52.480;9.806;2023-03-14T10:59:48;11.30;99.90
19348;DHT22;9810;52.480;9.806;2023-03-14T11:02:31;11.40;99.90
19348;DHT22;9810;52.480;9.806;2023-03-14T11:05:15;11.40;99.90
19348;DHT22;9810;52.480;9.806;2023-03-14T11:07:45;11.40;99.90
19348;DHT22;9810;52.480;9.806;2023-03-14T11:10:19;11.40;99.90
19348;DHT22;9810;52.480;9.806;2023-03-14T11:12:59;11.40;99.90
19348;DHT22;9810;52.480;9.806;2023-03-14T11:15:38;11.30;99.90
19348;DHT22;9810;52.480;9.806;2023-03-14T11:18:29;11.30;99.90
19348;DHT22;9810;52.480;9.806;2023-03-14T11:21:11;9.30;99.90
19348;DHT22;9810;52.480;9.806;2023-03-14T11:24:01;7.90;99.90
19348;DHT22;9810;52.480;9.806;2023-03-14T11:26:37;6.90;99.90
19348;DHT22;9810;52.480;9.806;2023-03-14T11:29:22;6.90;99.90
19348;DHT22;9810;52.480;9.806;2023-03-14T11:32:13;6.80;99.90
19348;DHT22;9810;52.480;9.806;2023-03-14T11:34:49;6.80;99.90
19348;DHT22;9810;52.480;9.806;2023-03-14T11:37:25;7.00;99.90
19348;DHT22;9810;52.480;9.806;2023-03-14T11:39:59;6.90;99.90
19348;DHT22;9810;52.480;9.806;2023-03-14T11:42:29;6.60;99.90
19348;DHT22;9810;52.480;9.806;2023-03-14T11:45:01;6.50;99.90
19348;DHT22;9810;52.480;9.806;2023-03-14T11:47:34;6.50;99.90
19348;DHT22;9810;52.480;9.806;2023-03-14T11:50:18;6.50;99.90
19348;DHT22;9810;52.480;9.806;2023-03-14T11:52:54;6.30;99.90
19348;DHT22;9810;52.480;9.806;2023-03-14T11:55:27;6.30;99.90
19348;DHT22;9810;52.480;9.806;2023-03-14T11:58:01;6.30;99.90
19348;DHT22;9810;52.480;9.806;2023-03-14T12:00:30;6.20;99.90
19348;DHT22;9810;52.480;9.806;2023-03-14T12:03:01;6.00;99.90
19348;DHT22;9810;52.480;9.806;2023-03-14T12:05:40;5.70;99.90
19348;DHT22;9810;52.480;9.806;2023-03-14T12:08:36;5.60;99.90
19348;DHT22;9810;52.480;9.806;2023-03-14T12:11:11;5.30;99.90
19348;DHT22;9810;52.480;9.806;2023-03-14T12:13:40;5.20;99.90
19348;DHT22;9810;52.480;9.806;2023-03-14T12:16:25;5.00;99.90
19348;DHT22;9810;52.480;9.806;2023-03-14T12:18:54;5.00;99.90
19348;DHT22;9810;52.480;9.806;2023-03-14T12:21:46;4.70;99.90
19348;DHT22;9810;52.480;9.806;2023-03-14T12:24:32;4.50;99.90
19348;DHT22;9810;52.480;9.806;2023-03-14T12:27:01;4.50;99.90
19348;DHT22;9810;52.480;9.806;2023-03-14T12:29:29;4.40;99.90
19348;DHT22;9810;52.480;9.806;2023-03-14T12:32:23;4.40;99.90
19348;DHT22;9810;52.480;9.806;2023-03-14T12:34:50;4.40;99.90
19348;DHT22;9810;52.480;9.806;2023-03-14T12:37:25;4.50;99.90
19348;DHT22;9810;52.480;9.806;2023-03-14T12:40:06;4.40;99.90
19348;DHT22;9810;52.480;9.806;2023-03-14T12:42:46;4.60;99.90
19348;DHT22;9810;52.480;9.806;2023-03-14T12:45:24;4.50;99.90
19348;DHT22;9810;52.480;9.806;2023-03-14T12:48:03;4.50;99.90
19348;DHT22;9810;52.480;9.806;2023-03-14T12:50:42;4.50;99.90
19348;DHT22;9810;52.480;9.806;2023-03-14T12:56:42;4.50;99.90
19348;DHT22;9810;52.480;9.806;2023-03-14T13:02:22;4.60;99.90
19348;DHT22;9810;52.480;9.806;2023-03-14T13:04:54;4.70;99.90
19348;DHT22;9810;52.480;9.806;2023-03-14T13:07:32;4.90;99.90
19348;DHT22;9810;52.480;9.806;2023-03-14T13:10:15;4.80;99.90
19348;DHT22;9810;52.480;9.806;2023-03-14T13:13:03;5.00;99.90
19348;DHT22;9810;52.480;9.806;2023-03-14T13:15:40;4.70;99.90
19348;DHT22;9810;52.480;9.806;2023-03-14T13:18:14;5.00;99.90
19348;DHT22;9810;52.480;9.806;2023-03-14T13:20:45;5.30;99.90
19348;DHT22;9810;52.480;9.806;2023-03-14T13:23:29;5.70;99.90
19348;DHT22;9810;52.480;9.806;2023-03-14T13:25:58;5.50;99.90
19348;DHT22;9810;52.480;9.806;2023-03-14T13:28:30;5.50;99.90
19348;DHT22;9810;52.480;9.806;2023-03-14T13:31:02;5.70;99.90
19348;DHT22;9810;52.480;9.806;2023-03-14T13:33:30;5.70;99.90
19348;DHT22;9810;52.480;9.806;2023-03-14T13:35:59;5.50;99.90
19348;DHT22;9810;52.480;9.806;2023-03-14T13:38:33;5.70;99.90
19348;DHT22;9810;52.480;9.806;2023-03-14T13:41:05;5.90;99.90
19348;DHT22;9810;52.480;9.806;2023-03-14T13:43:36;6.10;99.90
19348;DHT22;9810;52.480;9.806;2023-03-14T13:46:12;6.10;99.90
19348;DHT22;9810;52.480;9.806;2023-03-14T13:48:44;6.10;99.90
19348;DHT22;9810;52.480;9.806;2023-03-14T13:51:21;6.10;99.90
19348;DHT22;9810;52.480;9.806;2023-03-14T13:53:52;6.20;99.90
19348;DHT22;9810;52.480;9.806;2023-03-14T13:56:21;6.50;99.90
19348;DHT22;9810;52.480;9.806;2023-03-14T13:58:51;6.70;99.90
19348;DHT22;9810;52.480;9.806;2023-03-14T14:01:21;6.60;99.90
19348;DHT22;9810;52.480;9.806;2023-03-14T14:03:51;6.20;99.90
19348;DHT22;9810;52.480;9.806;2023-03-14T14:06:32;6.00;99.90
19348;DHT22;9810;52.480;9.806;2023-03-14T14:09:02;5.90;99.90
19348;DHT22;9810;52.480;9.806;2023-03-14T14:11:37;5.50;99.90
19348;DHT22;9810;52.480;9.806;2023-03-14T14:14:12;4.10;99.90
19348;DHT22;9810;52.480;9.806;2023-03-14T14:16:43;4.00;99.90
19348;DHT22;9810;52.480;9.806;2023-03-14T14:19:12;4.30;99.90
19348;DHT22;9810;52.480;9.806;2023-03-14T14:21:40;4.50;99.90
19348;DHT22;9810;52.480;9.806;2023-03-14T14:24:09;4.50;99.90
19348;DHT22;9810;52.480;9.806;2023-03-14T14:26:47;4.50;99.90
19348;DHT22;9810;52.480;9.806;2023-03-14T14:29:25;4.60;99.90
19348;DHT22;9810;52.480;9.806;2023-03-14T14:32:03;4.60;99.90
19348;DHT22;9810;52.480;9.806;2023-03-14T14:35:00;4.60;99.90
19348;DHT22;9810;52.480;9.806;2023-03-14T14:37:30;4.50;99.90
19348;DHT22;9810;52.480;9.806;2023-03-14T14:40:06;4.60;99.90
19348;DHT22;9810;52.480;9.806;2023-03-14T14:42:35;4.70;99.90
19348;DHT22;9810;52.480;9.806;2023-03-14T14:45:19;4.70;99.90
19348;DHT22;9810;52.480;9.806;2023-03-14T14:47:51;4.90;99.90
19348;DHT22;9810;52.480;9.806;2023-03-14T14:50:28;4.90;99.90
19348;DHT22;9810;52.480;9.806;2023-03-14T14:52:57;4.90;99.90
19348;DHT22;9810;52.480;9.806;2023-03-14T14:55:31;4.90;99.90
19348;DHT22;9810;52.480;9.806;2023-03-14T14:58:12;4.90;99.90
19348;DHT22;9810;52.480;9.806;2023-03-14T15:00:51;4.90;99.90
19348;DHT22;9810;52.480;9.806;2023-03-14T15:03:21;4.90;99.90
19348;DHT22;9810;52.480;9.806;2023-03-14T15:05:49;4.80;99.90
19348;DHT22;9810;52.480;9.806;2023-03-14T15:08:24;4.90;99.90
19348;DHT22;9810;52.480;9.806;2023-03-14T15:10:52;4.90;99.90
19348;DHT22;9810;52.480;9.806;2023-03-14T15:13:24;4.90;99.90
19348;DHT22;9810;52.480;9.806;2023-03-14T15:15:53;5.00;99.90
19348;DHT22;9810;52.480;9.806;2023-03-14T15:18:27;5.10;99.90
19348;DHT22;9810;52.480;9.806;2023-03-14T15:20:56;5.00;99.90
19348;DHT22;9810;52.480;9.806;2023-03-14T15:23:24;5.00;99.90
19348;DHT22;9810;52.480;9.806;2023-03-14T15:25:54;4.90;99.90
19348;DHT22;9810;52.480;9.806;2023-03-14T15:28:23;5.00;99.90
19348;DHT22;9810;52.480;9.806;2023-03-14T15:30:58;5.00;99.90
19348;DHT22;9810;52.480;9.806;2023-03-14T15:33:26;5.20;99.90
19348;DHT22;9810;52.480;9.806;2023-03-14T15:35:57;5.20;99.90
19348;DHT22;9810;52.480;9.806;2023-03-14T15:38:26;5.30;99.90
19348;DHT22;9810;52.480;9.806;2023-03-14T15:40:54;5.40;99.90
19348;DHT22;9810;52.480;9.806;2023-03-14T15:43:25;5.50;99.90
19348;DHT22;9810;52.480;9.806;2023-03-14T15:45:57;5.70;99.90
19348;DHT22;9810;52.480;9.806;2023-03-14T15:48:24;5.70;99.90
19348;DHT22;9810;52.480;9.806;2023-03-14T15:50:51;5.60;99.90
19348;DHT22;9810;52.480;9.806;2023-03-14T15:53:19;5.70;99.90
19348;DHT22;9810;52.480;9.806;2023-03-14T15:55:53;5.60;99.90
19348;DHT22;9810;52.480;9.806;2023-03-14T15:58:20;5.50;99.90
19348;DHT22;9810;52.480;9.806;2023-03-14T16:00:51;5.30;99.90
19348;DHT22;9810;52.480;9.806;2023-03-14T16:03:24;5.30;99.90
19348;DHT22;9810;52.480;9.806;2023-03-14T16:05:54;5.30;99.90
19348;DHT22;9810;52.480;9.806;2023-03-14T16:08:26;5.30;99.90
19348;DHT22;9810;52.480;9.806;2023-03-14T16:11:03;5.20;99.90
19348;DHT22;9810;52.480;9.806;2023-03-14T16:13:32;5.20;99.90
19348;DHT22;9810;52.480;9.806;2023-03-14T16:16:00;5.30;99.90
19348;DHT22;9810;52.480;9.806;2023-03-14T16:18:36;5.20;99.90
19348;DHT22;9810;52.480;9.806;2023-03-14T16:21:06;5.10;99.90